sensor_id;sensor_type;location;lat;lon;timestamp;P1;durP1;ratioP1;P2;durP2;ratioP2
34832;SDS011;55941;50.800;4.342;2023-06-14T00:01:52;9.90;;;4.00;;
34832;SDS011;55941;50.800;4.342;2023-06-14T00:04:18;11.82;;;5.07;;
34832;SDS011;55941;50.800;4.342;2023-06-14T00:06:45;14.50;;;4.55;;
34832;SDS011;55941;50.800;4.342;2023-06-14T00:09:11;12.60;;;4.35;;
34832;SDS011;55941;50.800;4.342;2023-06-14T00:11:42;7.28;;;3.95;;
34832;SDS011;55941;50.800;4.342;2023-06-14T00:14:08;10.05;;;4.63;;
34832;SDS011;55941;50.800;4.342;2023-06-14T00:16:35;14.65;;;4.45;;
34832;SDS011;55941;50.800;4.342;2023-06-14T00:19:03;19.80;;;4.47;;
34832;SDS011;55941;50.800;4.342;2023-06-14T00:21:29;9.05;;;4.38;;
34832;SDS011;55941;50.800;4.342;2023-06-14T00:23:57;11.98;;;4.63;;
34832;SDS011;55941;50.800;4.342;2023-06-14T00:26:23;11.63;;;4.63;;
34832;SDS011;55941;50.800;4.342;2023-06-14T00:28:48;10.45;;;4.38;;
34832;SDS011;55941;50.800;4.342;2023-06-14T00:31:14;5.60;;;3.72;;
34832;SDS011;55941;50.800;4.342;2023-06-14T00:33:40;11.63;;;4.20;;
34832;SDS011;55941;50.800;4.342;2023-06-14T00:36:05;8.20;;;4.15;;
34832;SDS011;55941;50.800;4.342;2023-06-14T00:38:31;14.70;;;3.92;;
34832;SDS011;55941;50.800;4.342;2023-06-14T00:40:57;11.68;;;4.30;;
34832;SDS011;55941;50.800;4.342;2023-06-14T00:43:22;9.20;;;4.20;;
34832;SDS011;55941;50.800;4.342;2023-06-14T00:45:48;8.45;;;3.92;;
34832;SDS011;55941;50.800;4.342;2023-06-14T00:48:15;13.57;;;4.25;;
34832;SDS011;55941;50.800;4.342;2023-06-14T00:50:41;17.45;;;5.20;;
34832;SDS011;55941;50.800;4.342;2023-06-14T00:53:10;13.88;;;4.53;;
34832;SDS011;55941;50.800;4.342;2023-06-14T00:55:37;8.77;;;4.45;;
34832;SDS011;55941;50.800;4.342;2023-06-14T00:58:02;12.45;;;4.28;;
34832;SDS011;55941;50.800;4.342;2023-06-14T01:00:28;10.68;;;4.10;;
34832;SDS011;55941;50.800;4.342;2023-06-14T01:02:54;16.73;;;4.15;;
34832;SDS011;55941;50.800;4.342;2023-06-14T01:05:20;13.38;;;4.78;;
34832;SDS011;55941;50.800;4.342;2023-06-14T01:07:53;9.13;;;4.43;;
34832;SDS011;55941;50.800;4.342;2023-06-14T01:15:35;10.45;;;4.32;;
34832;SDS011;55941;50.800;4.342;2023-06-14T01:18:05;12.23;;;4.35;;
34832;SDS011;55941;50.800;4.342;2023-06-14T01:20:32;14.60;;;4.85;;
34832;SDS011;55941;50.800;4.342;2023-06-14T01:23:01;10.32;;;4.38;;
34832;SDS011;55941;50.800;4.342;2023-06-14T01:25:27;8.60;;;4.63;;
34832;SDS011;55941;50.800;4.342;2023-06-14T01:27:55;13.80;;;4.35;;
34832;SDS011;55941;50.800;4.342;2023-06-14T01:30:23;13.25;;;4.90;;
34832;SDS011;55941;50.800;4.342;2023-06-14T01:32:53;8.75;;;4.30;;
34832;SDS011;55941;50.800;4.342;2023-06-14T01:35:20;15.98;;;4.68;;
34832;SDS011;55941;50.800;4.342;2023-06-14T01:37:47;10.10;;;4.57;;
34832;SDS011;55941;50.800;4.342;2023-06-14T01:40:14;9.00;;;4.53;;
34832;SDS011;55941;50.800;4.342;2023-06-14T01:42:40;11.45;;;5.65;;
34832;SDS011;55941;50.800;4.342;2023-06-14T01:45:07;7.72;;;4.55;;
34832;SDS011;55941;50.800;4.342;2023-06-14T01:47:35;8.68;;;4.53;;
34832;SDS011;55941;50.800;4.342;2023-06-14T01:50:04;6.60;;;4.40;;
34832;SDS011;55941;50.800;4.342;2023-06-14T01:52:30;11.85;;;4.90;;
34832;SDS011;55941;50.800;4.342;2023-06-14T01:54:56;7.70;;;4.57;;
34832;SDS011;55941;50.800;4.342;2023-06-14T01:57:22;11.05;;;5.00;;
34832;SDS011;55941;50.800;4.342;2023-06-14T01:59:50;10.65;;;4.32;;
34832;SDS011;55941;50.800;4.342;2023-06-14T02:02:16;10.25;;;5.15;;
34832;SDS011;55941;50.800;4.342;2023-06-14T02:04:41;11.10;;;5.28;;
34832;SDS011;55941;50.800;4.342;2023-06-14T02:07:07;9.25;;;4.50;;
34832;SDS011;55941;50.800;4.342;2023-06-14T02:09:33;12.82;;;4.75;;
34832;SDS011;55941;50.800;4.342;2023-06-14T02:12:00;11.27;;;5.10;;
34832;SDS011;55941;50.800;4.342;2023-06-14T02:14:28;9.95;;;4.93;;
34832;SDS011;55941;50.800;4.342;2023-06-14T02:16:53;12.68;;;4.63;;
34832;SDS011;55941;50.800;4.342;2023-06-14T02:19:19;8.55;;;5.32;;
34832;SDS011;55941;50.800;4.342;2023-06-14T02:21:45;9.70;;;4.45;;
34832;SDS011;55941;50.800;4.342;2023-06-14T02:24:12;5.15;;;4.43;;
34832;SDS011;55941;50.800;4.342;2023-06-14T02:26:38;9.80;;;5.00;;
34832;SDS011;55941;50.800;4.342;2023-06-14T02:29:05;7.50;;;4.65;;
34832;SDS011;55941;50.800;4.342;2023-06-14T02:31:31;11.15;;;5.40;;
34832;SDS011;55941;50.800;4.342;2023-06-14T02:33:57;13.65;;;5.20;;
34832;SDS011;55941;50.800;4.342;2023-06-14T02:36:23;15.18;;;4.90;;
34832;SDS011;55941;50.800;4.342;2023-06-14T02:38:50;18.95;;;5.38;;
34832;SDS011;55941;50.800;4.342;2023-06-14T02:41:15;9.57;;;4.97;;
34832;SDS011;55941;50.800;4.342;2023-06-14T02:43:41;20.88;;;5.28;;
34832;SDS011;55941;50.800;4.342;2023-06-14T02:46:08;15.13;;;5.70;;
34832;SDS011;55941;50.800;4.342;2023-06-14T02:48:33;8.45;;;4.70;;
34832;SDS011;55941;50.800;4.342;2023-06-14T02:50:59;12.63;;;5.00;;
34832;SDS011;55941;50.800;4.342;2023-06-14T02:53:25;8.20;;;4.80;;
34832;SDS011;55941;50.800;4.342;2023-06-14T02:55:50;16.33;;;5.45;;
34832;SDS011;55941;50.800;4.342;2023-06-14T02:58:16;12.40;;;5.68;;
34832;SDS011;55941;50.800;4.342;2023-06-14T03:00:43;8.68;;;5.53;;
34832;SDS011;55941;50.800;4.342;2023-06-14T03:03:09;14.50;;;5.93;;
34832;SDS011;55941;50.800;4.342;2023-06-14T03:05:40;11.50;;;5.20;;
34832;SDS011;55941;50.800;4.342;2023-06-14T03:08:11;12.10;;;5.55;;
34832;SDS011;55941;50.800;4.342;2023-06-14T03:10:42;12.27;;;5.43;;
34832;SDS011;55941;50.800;4.342;2023-06-14T03:13:08;9.57;;;5.43;;
34832;SDS011;55941;50.800;4.342;2023-06-14T03:15:35;10.40;;;5.45;;
34832;SDS011;55941;50.800;4.342;2023-06-14T03:18:01;17.23;;;6.32;;
34832;SDS011;55941;50.800;4.342;2023-06-14T03:20:28;17.73;;;5.68;;
34832;SDS011;55941;50.800;4.342;2023-06-14T03:22:55;11.30;;;5.63;;
34832;SDS011;55941;50.800;4.342;2023-06-14T03:25:20;10.55;;;5.72;;
34832;SDS011;55941;50.800;4.342;2023-06-14T03:27:47;8.75;;;5.85;;
34832;SDS011;55941;50.800;4.342;2023-06-14T03:30:13;11.88;;;5.75;;
34832;SDS011;55941;50.800;4.342;2023-06-14T03:32:39;12.98;;;6.13;;
34832;SDS011;55941;50.800;4.342;2023-06-14T03:35:04;11.40;;;6.05;;
34832;SDS011;55941;50.800;4.342;2023-06-14T03:37:31;12.38;;;6.13;;
34832;SDS011;55941;50.800;4.342;2023-06-14T03:39:56;9.38;;;5.95;;
34832;SDS011;55941;50.800;4.342;2023-06-14T03:42:23;15.60;;;6.05;;
34832;SDS011;55941;50.800;4.342;2023-06-14T03:44:49;9.77;;;6.30;;
34832;SDS011;55941;50.800;4.342;2023-06-14T03:47:14;17.33;;;6.50;;
34832;SDS011;55941;50.800;4.342;2023-06-14T03:49:41;10.00;;;5.90;;
34832;SDS011;55941;50.800;4.342;2023-06-14T03:52:06;12.48;;;5.80;;
34832;SDS011;55941;50.800;4.342;2023-06-14T03:54:32;9.93;;;5.65;;
34832;SDS011;55941;50.800;4.342;2023-06-14T03:56:58;12.85;;;5.90;;
34832;SDS011;55941;50.800;4.342;2023-06-14T03:59:25;14.73;;;5.57;;
34832;SDS011;55941;50.800;4.342;2023-06-14T04:01:51;17.20;;;5.65;;
34832;SDS011;55941;50.800;4.342;2023-06-14T04:04:18;12.45;;;6.03;;
34832;SDS011;55941;50.800;4.342;2023-06-14T04:06:44;10.63;;;5.88;;
34832;SDS011;55941;50.800;4.342;2023-06-14T04:09:13;13.65;;;6.10;;
34832;SDS011;55941;50.800;4.342;2023-06-14T04:11:38;11.00;;;5.82;;
34832;SDS011;55941;50.800;4.342;2023-06-14T04:14:05;16.48;;;6.13;;
34832;SDS011;55941;50.800;4.342;2023-06-14T04:16:33;11.15;;;6.13;;
34832;SDS011;55941;50.800;4.342;2023-06-14T04:18:58;22.45;;;5.97;;
34832;SDS011;55941;50.800;4.342;2023-06-14T04:21:24;20.05;;;6.38;;
34832;SDS011;55941;50.800;4.342;2023-06-14T04:23:52;14.43;;;6.82;;
34832;SDS011;55941;50.800;4.342;2023-06-14T04:26:20;16.70;;;6.30;;
34832;SDS011;55941;50.800;4.342;2023-06-14T04:28:48;14.13;;;6.00;;
34832;SDS011;55941;50.800;4.342;2023-06-14T04:31:15;18.58;;;5.97;;
34832;SDS011;55941;50.800;4.342;2023-06-14T04:33:41;12.43;;;6.45;;
34832;SDS011;55941;50.800;4.342;2023-06-14T04:36:11;12.63;;;6.00;;
34832;SDS011;55941;50.800;4.342;2023-06-14T04:38:38;21.63;;;6.78;;
34832;SDS011;55941;50.800;4.342;2023-06-14T04:41:04;12.45;;;6.70;;
34832;SDS011;55941;50.800;4.342;2023-06-14T04:43:31;12.25;;;6.03;;
34832;SDS011;55941;50.800;4.342;2023-06-14T04:46:03;8.45;;;6.20;;
34832;SDS011;55941;50.800;4.342;2023-06-14T04:48:35;12.40;;;6.18;;
34832;SDS011;55941;50.800;4.342;2023-06-14T04:51:06;10.40;;;5.85;;
34832;SDS011;55941;50.800;4.342;2023-06-14T04:53:32;14.40;;;6.15;;
34832;SDS011;55941;50.800;4.342;2023-06-14T04:55:58;15.48;;;6.47;;
34832;SDS011;55941;50.800;4.342;2023-06-14T04:58:24;8.73;;;6.32;;
34832;SDS011;55941;50.800;4.342;2023-06-14T05:00:50;12.95;;;5.85;;
34832;SDS011;55941;50.800;4.342;2023-06-14T05:03:16;15.77;;;6.70;;
34832;SDS011;55941;50.800;4.342;2023-06-14T05:05:43;14.07;;;6.47;;
34832;SDS011;55941;50.800;4.342;2023-06-14T05:08:09;23.52;;;6.70;;
34832;SDS011;55941;50.800;4.342;2023-06-14T05:10:34;21.17;;;6.82;;
34832;SDS011;55941;50.800;4.342;2023-06-14T05:13:01;17.27;;;5.95;;
34832;SDS011;55941;50.800;4.342;2023-06-14T05:15:26;16.67;;;6.32;;
34832;SDS011;55941;50.800;4.342;2023-06-14T05:17:54;16.30;;;5.82;;
34832;SDS011;55941;50.800;4.342;2023-06-14T05:20:23;12.57;;;5.93;;
34832;SDS011;55941;50.800;4.342;2023-06-14T05:22:50;10.88;;;6.78;;
34832;SDS011;55941;50.800;4.342;2023-06-14T05:25:18;14.07;;;6.65;;
34832;SDS011;55941;50.800;4.342;2023-06-14T05:27:47;20.10;;;6.22;;
34832;SDS011;55941;50.800;4.342;2023-06-14T05:30:14;15.73;;;6.45;;
34832;SDS011;55941;50.800;4.342;2023-06-14T05:32:40;8.95;;;5.78;;
34832;SDS011;55941;50.800;4.342;2023-06-14T05:35:08;20.95;;;6.75;;
34832;SDS011;55941;50.800;4.342;2023-06-14T05:37:33;13.13;;;6.57;;
34832;SDS011;55941;50.800;4.342;2023-06-14T05:39:59;19.05;;;6.68;;
34832;SDS011;55941;50.800;4.342;2023-06-14T05:42:25;31.42;;;7.20;;
34832;SDS011;55941;50.800;4.342;2023-06-14T05:44:50;12.82;;;6.35;;
34832;SDS011;55941;50.800;4.342;2023-06-14T05:47:17;16.77;;;6.57;;
34832;SDS011;55941;50.800;4.342;2023-06-14T05:49:42;14.20;;;6.90;;
34832;SDS011;55941;50.800;4.342;2023-06-14T05:52:09;21.48;;;7.00;;
34832;SDS011;55941;50.800;4.342;2023-06-14T05:54:36;12.73;;;5.97;;
34832;SDS011;55941;50.800;4.342;2023-06-14T05:57:02;14.57;;;6.45;;
34832;SDS011;55941;50.800;4.342;2023-06-14T05:59:30;15.07;;;6.22;;
34832;SDS011;55941;50.800;4.342;2023-06-14T06:01:57;11.38;;;6.57;;
34832;SDS011;55941;50.800;4.342;2023-06-14T06:04:23;14.00;;;6.47;;
34832;SDS011;55941;50.800;4.342;2023-06-14T06:06:49;16.33;;;6.30;;
34832;SDS011;55941;50.800;4.342;2023-06-14T06:09:15;15.15;;;6.43;;
34832;SDS011;55941;50.800;4.342;2023-06-14T06:11:40;14.05;;;6.75;;
34832;SDS011;55941;50.800;4.342;2023-06-14T06:14:06;17.55;;;5.85;;
34832;SDS011;55941;50.800;4.342;2023-06-14T06:16:32;16.98;;;6.53;;
34832;SDS011;55941;50.800;4.342;2023-06-14T06:19:00;11.88;;;5.85;;
34832;SDS011;55941;50.800;4.342;2023-06-14T06:21:25;18.85;;;6.00;;
34832;SDS011;55941;50.800;4.342;2023-06-14T06:23:51;11.93;;;6.28;;
34832;SDS011;55941;50.800;4.342;2023-06-14T06:26:17;18.55;;;6.50;;
34832;SDS011;55941;50.800;4.342;2023-06-14T06:28:42;17.85;;;6.03;;
34832;SDS011;55941;50.800;4.342;2023-06-14T06:31:08;26.70;;;5.72;;
34832;SDS011;55941;50.800;4.342;2023-06-14T06:33:34;20.83;;;5.80;;
34832;SDS011;55941;50.800;4.342;2023-06-14T06:36:00;21.38;;;6.68;;
34832;SDS011;55941;50.800;4.342;2023-06-14T06:38:26;13.30;;;6.00;;
34832;SDS011;55941;50.800;4.342;2023-06-14T06:40:51;12.98;;;5.32;;
34832;SDS011;55941;50.800;4.342;2023-06-14T06:43:19;10.27;;;5.80;;
34832;SDS011;55941;50.800;4.342;2023-06-14T06:45:45;41.65;;;7.30;;
34832;SDS011;55941;50.800;4.342;2023-06-14T06:51:00;24.08;;;6.32;;
34832;SDS011;55941;50.800;4.342;2023-06-14T06:53:29;29.73;;;6.63;;
34832;SDS011;55941;50.800;4.342;2023-06-14T06:56:01;45.58;;;7.13;;
34832;SDS011;55941;50.800;4.342;2023-06-14T06:58:30;20.63;;;5.70;;
34832;SDS011;55941;50.800;4.342;2023-06-14T07:00:57;16.45;;;5.88;;
34832;SDS011;55941;50.800;4.342;2023-06-14T07:03:23;30.35;;;6.32;;
34832;SDS011;55941;50.800;4.342;2023-06-14T07:05:49;11.50;;;5.03;;
34832;SDS011;55941;50.800;4.342;2023-06-14T07:08:15;31.55;;;6.50;;
34832;SDS011;55941;50.800;4.342;2023-06-14T07:10:43;14.70;;;5.32;;
34832;SDS011;55941;50.800;4.342;2023-06-14T07:13:12;22.45;;;6.03;;
34832;SDS011;55941;50.800;4.342;2023-06-14T07:16:13;11.98;;;5.18;;
34832;SDS011;55941;50.800;4.342;2023-06-14T07:18:55;11.30;;;4.95;;
34832;SDS011;55941;50.800;4.342;2023-06-14T07:21:24;17.70;;;5.70;;
34832;SDS011;55941;50.800;4.342;2023-06-14T07:23:53;11.48;;;4.63;;
34832;SDS011;55941;50.800;4.342;2023-06-14T07:26:19;17.40;;;5.38;;
34832;SDS011;55941;50.800;4.342;2023-06-14T07:28:45;15.43;;;5.80;;
34832;SDS011;55941;50.800;4.342;2023-06-14T07:31:13;16.70;;;4.88;;
34832;SDS011;55941;50.800;4.342;2023-06-14T07:33:49;11.45;;;5.40;;
34832;SDS011;55941;50.800;4.342;2023-06-14T07:36:14;9.80;;;5.00;;
34832;SDS011;55941;50.800;4.342;2023-06-14T07:38:40;13.25;;;5.03;;
34832;SDS011;55941;50.800;4.342;2023-06-14T07:41:06;10.35;;;4.93;;
34832;SDS011;55941;50.800;4.342;2023-06-14T07:43:31;17.08;;;4.70;;
34832;SDS011;55941;50.800;4.342;2023-06-14T07:45:57;11.02;;;5.03;;
34832;SDS011;55941;50.800;4.342;2023-06-14T07:48:24;12.40;;;4.50;;
34832;SDS011;55941;50.800;4.342;2023-06-14T07:50:49;39.83;;;6.63;;
34832;SDS011;55941;50.800;4.342;2023-06-14T07:53:15;12.25;;;4.68;;
34832;SDS011;55941;50.800;4.342;2023-06-14T07:55:41;30.52;;;6.47;;
34832;SDS011;55941;50.800;4.342;2023-06-14T07:58:09;24.45;;;5.60;;
34832;SDS011;55941;50.800;4.342;2023-06-14T08:00:54;12.65;;;4.95;;
34832;SDS011;55941;50.800;4.342;2023-06-14T08:03:20;106.78;;;12.65;;
34832;SDS011;55941;50.800;4.342;2023-06-14T08:05:48;29.08;;;6.40;;
34832;SDS011;55941;50.800;4.342;2023-06-14T08:08:15;37.40;;;6.72;;
34832;SDS011;55941;50.800;4.342;2023-06-14T08:10:41;19.33;;;4.90;;
34832;SDS011;55941;50.800;4.342;2023-06-14T08:13:16;166.32;;;18.20;;
34832;SDS011;55941;50.800;4.342;2023-06-14T08:15:44;73.28;;;9.60;;
34832;SDS011;55941;50.800;4.342;2023-06-14T08:18:11;18.02;;;5.97;;
34832;SDS011;55941;50.800;4.342;2023-06-14T08:20:37;12.90;;;4.93;;
34832;SDS011;55941;50.800;4.342;2023-06-14T08:23:03;18.08;;;5.00;;
34832;SDS011;55941;50.800;4.342;2023-06-14T08:25:29;14.65;;;4.45;;
34832;SDS011;55941;50.800;4.342;2023-06-14T08:27:58;11.77;;;4.43;;
34832;SDS011;55941;50.800;4.342;2023-06-14T08:30:24;16.13;;;4.75;;
34832;SDS011;55941;50.800;4.342;2023-06-14T08:32:49;9.38;;;4.70;;
34832;SDS011;55941;50.800;4.342;2023-06-14T08:35:17;20.63;;;4.00;;
34832;SDS011;55941;50.800;4.342;2023-06-14T08:37:43;12.48;;;4.57;;
34832;SDS011;55941;50.800;4.342;2023-06-14T08:42:54;15.60;;;4.43;;
34832;SDS011;55941;50.800;4.342;2023-06-14T08:45:20;19.40;;;4.30;;
34832;SDS011;55941;50.800;4.342;2023-06-14T08:47:47;19.02;;;4.60;;
34832;SDS011;55941;50.800;4.342;2023-06-14T08:50:19;14.38;;;4.93;;
34832;SDS011;55941;50.800;4.342;2023-06-14T08:52:53;10.30;;;4.28;;
34832;SDS011;55941;50.800;4.342;2023-06-14T08:55:23;14.63;;;4.43;;
34832;SDS011;55941;50.800;4.342;2023-06-14T08:57:55;22.10;;;5.00;;
34832;SDS011;55941;50.800;4.342;2023-06-14T09:00:25;15.45;;;5.18;;
34832;SDS011;55941;50.800;4.342;2023-06-14T09:02:53;19.27;;;4.70;;
34832;SDS011;55941;50.800;4.342;2023-06-14T09:05:28;21.02;;;5.82;;
34832;SDS011;55941;50.800;4.342;2023-06-14T09:07:54;13.52;;;5.05;;
34832;SDS011;55941;50.800;4.342;2023-06-14T09:10:21;12.30;;;4.70;;
34832;SDS011;55941;50.800;4.342;2023-06-14T09:12:49;28.67;;;5.28;;
34832;SDS011;55941;50.800;4.342;2023-06-14T09:15:16;25.08;;;4.90;;
34832;SDS011;55941;50.800;4.342;2023-06-14T09:17:42;24.45;;;4.80;;
34832;SDS011;55941;50.800;4.342;2023-06-14T09:20:19;13.02;;;4.95;;
34832;SDS011;55941;50.800;4.342;2023-06-14T09:22:45;21.50;;;4.85;;
34832;SDS011;55941;50.800;4.342;2023-06-14T09:25:12;17.80;;;5.20;;
34832;SDS011;55941;50.800;4.342;2023-06-14T09:27:41;16.77;;;4.22;;
34832;SDS011;55941;50.800;4.342;2023-06-14T09:30:09;21.70;;;5.25;;
34832;SDS011;55941;50.800;4.342;2023-06-14T09:35:33;16.92;;;4.57;;
34832;SDS011;55941;50.800;4.342;2023-06-14T09:40:26;11.80;;;5.05;;
34832;SDS011;55941;50.800;4.342;2023-06-14T09:42:53;11.65;;;4.63;;
34832;SDS011;55941;50.800;4.342;2023-06-14T09:45:20;15.57;;;4.97;;
34832;SDS011;55941;50.800;4.342;2023-06-14T09:47:48;36.17;;;6.03;;
34832;SDS011;55941;50.800;4.342;2023-06-14T09:50:15;9.07;;;4.72;;
34832;SDS011;55941;50.800;4.342;2023-06-14T09:52:41;13.00;;;4.35;;
34832;SDS011;55941;50.800;4.342;2023-06-14T09:55:13;10.30;;;4.85;;
34832;SDS011;55941;50.800;4.342;2023-06-14T09:57:43;13.98;;;4.70;;
34832;SDS011;55941;50.800;4.342;2023-06-14T10:00:13;12.90;;;4.78;;
34832;SDS011;55941;50.800;4.342;2023-06-14T10:02:40;18.58;;;4.75;;
34832;SDS011;55941;50.800;4.342;2023-06-14T10:05:15;11.02;;;4.20;;
34832;SDS011;55941;50.800;4.342;2023-06-14T10:07:44;14.02;;;4.53;;
34832;SDS011;55941;50.800;4.342;2023-06-14T10:10:21;13.75;;;4.10;;
34832;SDS011;55941;50.800;4.342;2023-06-14T10:12:47;11.80;;;4.63;;
34832;SDS011;55941;50.800;4.342;2023-06-14T10:15:20;15.63;;;4.47;;
34832;SDS011;55941;50.800;4.342;2023-06-14T10:18:17;16.70;;;4.33;;
34832;SDS011;55941;50.800;4.342;2023-06-14T10:23:41;15.13;;;4.60;;
34832;SDS011;55941;50.800;4.342;2023-06-14T10:26:13;7.18;;;4.50;;
34832;SDS011;55941;50.800;4.342;2023-06-14T10:29:07;9.27;;;4.43;;
34832;SDS011;55941;50.800;4.342;2023-06-14T10:31:43;10.02;;;4.20;;
34832;SDS011;55941;50.800;4.342;2023-06-14T10:34:23;13.75;;;4.28;;
34832;SDS011;55941;50.800;4.342;2023-06-14T10:37:12;10.48;;;4.03;;
34832;SDS011;55941;50.800;4.342;2023-06-14T10:39:41;9.23;;;4.03;;
34832;SDS011;55941;50.800;4.342;2023-06-14T10:42:12;10.30;;;4.40;;
34832;SDS011;55941;50.800;4.342;2023-06-14T10:47:21;13.68;;;3.97;;
34832;SDS011;55941;50.800;4.342;2023-06-14T10:49:57;11.02;;;4.00;;
34832;SDS011;55941;50.800;4.342;2023-06-14T10:52:32;8.95;;;3.80;;
34832;SDS011;55941;50.800;4.342;2023-06-14T10:55:04;15.73;;;4.72;;
34832;SDS011;55941;50.800;4.342;2023-06-14T10:57:31;13.03;;;4.47;;
34832;SDS011;55941;50.800;4.342;2023-06-14T10:59:58;12.23;;;4.10;;
34832;SDS011;55941;50.800;4.342;2023-06-14T11:05:28;11.73;;;3.90;;
34832;SDS011;55941;50.800;4.342;2023-06-14T11:10:39;7.07;;;3.65;;
34832;SDS011;55941;50.800;4.342;2023-06-14T11:13:08;22.42;;;4.20;;
34832;SDS011;55941;50.800;4.342;2023-06-14T11:15:37;17.58;;;4.07;;
34832;SDS011;55941;50.800;4.342;2023-06-14T11:18:04;7.82;;;3.55;;
34832;SDS011;55941;50.800;4.342;2023-06-14T11:20:32;8.15;;;3.72;;
34832;SDS011;55941;50.800;4.342;2023-06-14T11:23:03;14.15;;;4.05;;
34832;SDS011;55941;50.800;4.342;2023-06-14T11:25:30;49.70;;;5.43;;
34832;SDS011;55941;50.800;4.342;2023-06-14T11:27:56;52.72;;;6.65;;
34832;SDS011;55941;50.800;4.342;2023-06-14T11:30:23;14.85;;;3.60;;
34832;SDS011;55941;50.800;4.342;2023-06-14T11:32:50;9.77;;;3.28;;
34832;SDS011;55941;50.800;4.342;2023-06-14T11:35:17;11.43;;;3.13;;
34832;SDS011;55941;50.800;4.342;2023-06-14T11:37:44;15.25;;;3.55;;
34832;SDS011;55941;50.800;4.342;2023-06-14T11:40:10;19.42;;;3.75;;
34832;SDS011;55941;50.800;4.342;2023-06-14T11:42:38;5.47;;;3.25;;
34832;SDS011;55941;50.800;4.342;2023-06-14T11:45:08;18.70;;;3.50;;
34832;SDS011;55941;50.800;4.342;2023-06-14T11:47:35;8.57;;;3.30;;
34832;SDS011;55941;50.800;4.342;2023-06-14T11:50:08;13.68;;;3.13;;
34832;SDS011;55941;50.800;4.342;2023-06-14T11:52:36;18.25;;;3.45;;
34832;SDS011;55941;50.800;4.342;2023-06-14T11:55:02;11.98;;;3.42;;
34832;SDS011;55941;50.800;4.342;2023-06-14T11:57:34;10.38;;;3.58;;
34832;SDS011;55941;50.800;4.342;2023-06-14T12:00:04;12.07;;;3.80;;
34832;SDS011;55941;50.800;4.342;2023-06-14T12:02:38;9.90;;;3.10;;
34832;SDS011;55941;50.800;4.342;2023-06-14T12:05:06;9.88;;;3.40;;
34832;SDS011;55941;50.800;4.342;2023-06-14T12:07:35;8.10;;;3.42;;
34832;SDS011;55941;50.800;4.342;2023-06-14T12:10:07;17.42;;;3.97;;
34832;SDS011;55941;50.800;4.342;2023-06-14T12:12:37;20.20;;;3.10;;
34832;SDS011;55941;50.800;4.342;2023-06-14T12:15:04;13.57;;;3.33;;
34832;SDS011;55941;50.800;4.342;2023-06-14T12:17:37;8.32;;;3.30;;
34832;SDS011;55941;50.800;4.342;2023-06-14T12:20:07;8.02;;;3.15;;
34832;SDS011;55941;50.800;4.342;2023-06-14T12:22:55;12.45;;;3.55;;
34832;SDS011;55941;50.800;4.342;2023-06-14T12:25:33;7.78;;;3.22;;
34832;SDS011;55941;50.800;4.342;2023-06-14T12:28:07;9.85;;;3.50;;
34832;SDS011;55941;50.800;4.342;2023-06-14T12:30:37;7.05;;;2.92;;
34832;SDS011;55941;50.800;4.342;2023-06-14T12:33:03;13.73;;;3.13;;
34832;SDS011;55941;50.800;4.342;2023-06-14T12:35:30;9.10;;;3.33;;
34832;SDS011;55941;50.800;4.342;2023-06-14T12:37:56;11.48;;;3.03;;
34832;SDS011;55941;50.800;4.342;2023-06-14T12:40:22;14.75;;;3.50;;
34832;SDS011;55941;50.800;4.342;2023-06-14T12:42:49;12.85;;;3.03;;
34832;SDS011;55941;50.800;4.342;2023-06-14T12:45:16;11.45;;;2.90;;
34832;SDS011;55941;50.800;4.342;2023-06-14T12:47:41;10.27;;;3.30;;
34832;SDS011;55941;50.800;4.342;2023-06-14T12:50:07;9.80;;;2.67;;
34832;SDS011;55941;50.800;4.342;2023-06-14T12:52:33;13.35;;;2.95;;
34832;SDS011;55941;50.800;4.342;2023-06-14T12:55:01;9.27;;;2.70;;
34832;SDS011;55941;50.800;4.342;2023-06-14T12:57:29;9.65;;;2.67;;
34832;SDS011;55941;50.800;4.342;2023-06-14T12:59:55;8.20;;;3.38;;
34832;SDS011;55941;50.800;4.342;2023-06-14T13:02:20;8.70;;;2.75;;
34832;SDS011;55941;50.800;4.342;2023-06-14T13:04:49;8.90;;;2.38;;
34832;SDS011;55941;50.800;4.342;2023-06-14T13:07:15;19.92;;;3.13;;
34832;SDS011;55941;50.800;4.342;2023-06-14T13:09:41;25.83;;;4.05;;
34832;SDS011;55941;50.800;4.342;2023-06-14T13:12:08;15.38;;;2.72;;
34832;SDS011;55941;50.800;4.342;2023-06-14T13:14:36;6.45;;;2.50;;
34832;SDS011;55941;50.800;4.342;2023-06-14T13:17:03;14.82;;;2.83;;
34832;SDS011;55941;50.800;4.342;2023-06-14T13:19:28;16.65;;;2.65;;
34832;SDS011;55941;50.800;4.342;2023-06-14T13:21:55;18.80;;;3.08;;
34832;SDS011;55941;50.800;4.342;2023-06-14T13:24:20;7.43;;;2.50;;
34832;SDS011;55941;50.800;4.342;2023-06-14T13:26:47;9.07;;;2.50;;
34832;SDS011;55941;50.800;4.342;2023-06-14T13:29:12;17.23;;;2.58;;
34832;SDS011;55941;50.800;4.342;2023-06-14T13:31:38;11.98;;;3.33;;
34832;SDS011;55941;50.800;4.342;2023-06-14T13:34:04;15.07;;;2.47;;
34832;SDS011;55941;50.800;4.342;2023-06-14T13:36:30;10.10;;;2.25;;
34832;SDS011;55941;50.800;4.342;2023-06-14T13:38:56;5.97;;;2.08;;
34832;SDS011;55941;50.800;4.342;2023-06-14T13:41:23;12.68;;;2.60;;
34832;SDS011;55941;50.800;4.342;2023-06-14T13:43:56;9.77;;;2.85;;
34832;SDS011;55941;50.800;4.342;2023-06-14T13:46:22;8.38;;;2.15;;
34832;SDS011;55941;50.800;4.342;2023-06-14T13:48:48;6.10;;;2.15;;
34832;SDS011;55941;50.800;4.342;2023-06-14T13:51:13;11.25;;;2.58;;
34832;SDS011;55941;50.800;4.342;2023-06-14T13:53:39;8.77;;;2.20;;
34832;SDS011;55941;50.800;4.342;2023-06-14T13:56:05;13.25;;;2.10;;
34832;SDS011;55941;50.800;4.342;2023-06-14T13:58:31;9.48;;;2.38;;
34832;SDS011;55941;50.800;4.342;2023-06-14T14:00:57;7.32;;;2.33;;
34832;SDS011;55941;50.800;4.342;2023-06-14T14:03:24;6.43;;;2.08;;
34832;SDS011;55941;50.800;4.342;2023-06-14T14:05:50;6.15;;;1.85;;
34832;SDS011;55941;50.800;4.342;2023-06-14T14:08:16;6.80;;;2.30;;
34832;SDS011;55941;50.800;4.342;2023-06-14T14:10:41;10.00;;;1.73;;
34832;SDS011;55941;50.800;4.342;2023-06-14T14:13:07;7.18;;;2.40;;
34832;SDS011;55941;50.800;4.342;2023-06-14T14:15:33;10.32;;;2.10;;
34832;SDS011;55941;50.800;4.342;2023-06-14T14:17:59;6.68;;;1.83;;
34832;SDS011;55941;50.800;4.342;2023-06-14T14:20:25;10.07;;;2.78;;
34832;SDS011;55941;50.800;4.342;2023-06-14T14:22:52;12.40;;;2.88;;
34832;SDS011;55941;50.800;4.342;2023-06-14T14:25:17;5.82;;;1.77;;
34832;SDS011;55941;50.800;4.342;2023-06-14T14:27:43;5.68;;;2.08;;
34832;SDS011;55941;50.800;4.342;2023-06-14T14:30:09;19.83;;;3.30;;
34832;SDS011;55941;50.800;4.342;2023-06-14T14:32:35;11.05;;;2.15;;
34832;SDS011;55941;50.800;4.342;2023-06-14T14:35:00;13.88;;;1.98;;
34832;SDS011;55941;50.800;4.342;2023-06-14T14:37:26;10.05;;;1.88;;
34832;SDS011;55941;50.800;4.342;2023-06-14T14:39:52;6.03;;;2.10;;
34832;SDS011;55941;50.800;4.342;2023-06-14T14:42:17;4.95;;;1.70;;
34832;SDS011;55941;50.800;4.342;2023-06-14T14:44:43;5.30;;;1.55;;
34832;SDS011;55941;50.800;4.342;2023-06-14T14:47:09;5.60;;;1.52;;
34832;SDS011;55941;50.800;4.342;2023-06-14T14:49:35;3.92;;;1.40;;
34832;SDS011;55941;50.800;4.342;2023-06-14T14:52:01;6.50;;;1.30;;
34832;SDS011;55941;50.800;4.342;2023-06-14T14:54:27;5.40;;;1.20;;
34832;SDS011;55941;50.800;4.342;2023-06-14T14:56:57;5.35;;;1.13;;
34832;SDS011;55941;50.800;4.342;2023-06-14T14:59:22;6.82;;;1.40;;
34832;SDS011;55941;50.800;4.342;2023-06-14T15:01:48;7.78;;;1.55;;
34832;SDS011;55941;50.800;4.342;2023-06-14T15:04:16;5.65;;;1.30;;
34832;SDS011;55941;50.800;4.342;2023-06-14T15:06:42;7.95;;;1.33;;
34832;SDS011;55941;50.800;4.342;2023-06-14T15:09:08;8.23;;;1.73;;